sensor_id;sensor_type;location;lat;lon;timestamp;P1;durP1;ratioP1;P2;durP2;ratioP2
18334;SDS011;9293;49.524;10.964;2022-12-10T00:01:49;31.63;;;19.98;;
18334;SDS011;9293;49.524;10.964;2022-12-10T00:04:18;27.83;;;18.52;;
18334;SDS011;9293;49.524;10.964;2022-12-10T00:06:47;27.63;;;18.67;;
18334;SDS011;9293;49.524;10.964;2022-12-10T00:09:16;30.92;;;19.27;;
18334;SDS011;9293;49.524;10.964;2022-12-10T00:11:45;31.83;;;20.25;;
18334;SDS011;9293;49.524;10.964;2022-12-10T00:14:13;30.63;;;19.15;;
18334;SDS011;9293;49.524;10.964;2022-12-10T00:16:42;30.23;;;18.85;;
18334;SDS011;9293;49.524;10.964;2022-12-10T00:19:10;31.05;;;18.67;;
18334;SDS011;9293;49.524;10.964;2022-12-10T00:21:38;30.27;;;20.10;;
18334;SDS011;9293;49.524;10.964;2022-12-10T00:24:06;29.05;;;19.30;;
18334;SDS011;9293;49.524;10.964;2022-12-10T00:26:37;30.05;;;19.25;;
18334;SDS011;9293;49.524;10.964;2022-12-10T00:29:06;31.00;;;20.58;;
18334;SDS011;9293;49.524;10.964;2022-12-10T00:31:37;29.45;;;19.08;;
18334;SDS011;9293;49.524;10.964;2022-12-10T00:34:07;27.17;;;19.10;;
18334;SDS011;9293;49.524;10.964;2022-12-10T00:36:37;30.15;;;19.02;;
18334;SDS011;9293;49.524;10.964;2022-12-10T00:39:20;28.27;;;18.25;;
18334;SDS011;9293;49.524;10.964;2022-12-10T00:41:48;32.97;;;19.23;;
18334;SDS011;9293;49.524;10.964;2022-12-10T00:44:18;33.63;;;20.52;;
18334;SDS011;9293;49.524;10.964;2022-12-10T00:46:46;32.58;;;19.95;;
18334;SDS011;9293;49.524;10.964;2022-12-10T00:49:14;32.25;;;19.65;;
18334;SDS011;9293;49.524;10.964;2022-12-10T00:51:42;29.60;;;19.08;;
18334;SDS011;9293;49.524;10.964;2022-12-10T00:54:10;33.60;;;21.73;;
18334;SDS011;9293;49.524;10.964;2022-12-10T00:56:38;30.73;;;19.98;;
18334;SDS011;9293;49.524;10.964;2022-12-10T00:59:06;31.80;;;20.00;;
18334;SDS011;9293;49.524;10.964;2022-12-10T01:01:36;31.92;;;21.00;;
18334;SDS011;9293;49.524;10.964;2022-12-10T01:04:08;31.92;;;20.20;;
18334;SDS011;9293;49.524;10.964;2022-12-10T01:06:43;34.13;;;20.98;;
18334;SDS011;9293;49.524;10.964;2022-12-10T01:09:13;35.80;;;21.00;;
18334;SDS011;9293;49.524;10.964;2022-12-10T01:11:45;32.17;;;19.75;;
18334;SDS011;9293;49.524;10.964;2022-12-10T01:14:16;31.65;;;20.67;;
18334;SDS011;9293;49.524;10.964;2022-12-10T01:16:47;30.70;;;20.02;;
18334;SDS011;9293;49.524;10.964;2022-12-10T01:19:16;32.38;;;19.50;;
18334;SDS011;9293;49.524;10.964;2022-12-10T01:21:44;30.55;;;20.38;;
18334;SDS011;9293;49.524;10.964;2022-12-10T01:24:12;28.52;;;19.73;;
18334;SDS011;9293;49.524;10.964;2022-12-10T01:26:43;30.02;;;19.05;;
18334;SDS011;9293;49.524;10.964;2022-12-10T01:29:11;26.88;;;18.52;;
18334;SDS011;9293;49.524;10.964;2022-12-10T01:31:39;28.33;;;19.08;;
18334;SDS011;9293;49.524;10.964;2022-12-10T01:34:09;30.25;;;19.80;;
18334;SDS011;9293;49.524;10.964;2022-12-10T01:39:11;27.58;;;18.25;;
18334;SDS011;9293;49.524;10.964;2022-12-10T01:41:55;29.23;;;19.15;;
18334;SDS011;9293;49.524;10.964;2022-12-10T01:46:54;28.55;;;19.15;;
18334;SDS011;9293;49.524;10.964;2022-12-10T01:51:54;31.83;;;19.42;;
18334;SDS011;9293;49.524;10.964;2022-12-10T01:54:33;29.63;;;19.50;;
18334;SDS011;9293;49.524;10.964;2022-12-10T02:00:06;31.90;;;20.52;;
18334;SDS011;9293;49.524;10.964;2022-12-10T02:02:48;30.17;;;19.08;;
18334;SDS011;9293;49.524;10.964;2022-12-10T02:08:10;34.13;;;20.75;;
18334;SDS011;9293;49.524;10.964;2022-12-10T02:10:54;28.63;;;19.08;;
18334;SDS011;9293;49.524;10.964;2022-12-10T02:13:42;28.95;;;19.83;;
18334;SDS011;9293;49.524;10.964;2022-12-10T02:16:16;29.45;;;20.38;;
18334;SDS011;9293;49.524;10.964;2022-12-10T02:18:56;30.17;;;20.15;;
18334;SDS011;9293;49.524;10.964;2022-12-10T02:21:31;28.55;;;20.00;;
18334;SDS011;9293;49.524;10.964;2022-12-10T02:24:03;29.63;;;18.75;;
18334;SDS011;9293;49.524;10.964;2022-12-10T02:29:31;33.83;;;21.10;;
18334;SDS011;9293;49.524;10.964;2022-12-10T02:32:38;29.02;;;19.98;;
18334;SDS011;9293;49.524;10.964;2022-12-10T02:35:03;29.00;;;18.77;;
18334;SDS011;9293;49.524;10.964;2022-12-10T02:37:42;33.72;;;20.92;;
18334;SDS011;9293;49.524;10.964;2022-12-10T02:40:18;31.27;;;20.08;;
18334;SDS011;9293;49.524;10.964;2022-12-10T02:42:52;29.65;;;19.50;;
18334;SDS011;9293;49.524;10.964;2022-12-10T02:45:25;33.80;;;21.30;;
18334;SDS011;9293;49.524;10.964;2022-12-10T02:47:59;32.15;;;21.30;;
18334;SDS011;9293;49.524;10.964;2022-12-10T02:50:36;28.63;;;20.35;;
18334;SDS011;9293;49.524;10.964;2022-12-10T02:53:04;30.30;;;19.38;;
18334;SDS011;9293;49.524;10.964;2022-12-10T02:55:38;27.88;;;19.38;;
18334;SDS011;9293;49.524;10.964;2022-12-10T02:58:34;29.08;;;19.65;;
18334;SDS011;9293;49.524;10.964;2022-12-10T03:01:34;32.42;;;20.73;;
18334;SDS011;9293;49.524;10.964;2022-12-10T03:04:18;31.13;;;20.02;;
18334;SDS011;9293;49.524;10.964;2022-12-10T03:06:55;31.23;;;20.30;;
18334;SDS011;9293;49.524;10.964;2022-12-10T03:09:31;31.38;;;20.17;;
18334;SDS011;9293;49.524;10.964;2022-12-10T03:12:41;31.27;;;20.05;;
18334;SDS011;9293;49.524;10.964;2022-12-10T03:15:15;32.67;;;20.17;;
18334;SDS011;9293;49.524;10.964;2022-12-10T03:17:45;31.13;;;20.42;;
18334;SDS011;9293;49.524;10.964;2022-12-10T03:20:14;30.92;;;20.50;;
18334;SDS011;9293;49.524;10.964;2022-12-10T03:22:44;29.50;;;19.75;;
18334;SDS011;9293;49.524;10.964;2022-12-10T03:25:15;30.27;;;20.67;;
18334;SDS011;9293;49.524;10.964;2022-12-10T03:27:47;29.85;;;19.52;;
18334;SDS011;9293;49.524;10.964;2022-12-10T03:32:46;31.38;;;19.40;;
18334;SDS011;9293;49.524;10.964;2022-12-10T03:35:16;33.20;;;22.55;;
18334;SDS011;9293;49.524;10.964;2022-12-10T03:37:46;31.00;;;20.45;;
18334;SDS011;9293;49.524;10.964;2022-12-10T03:40:18;30.63;;;19.35;;
18334;SDS011;9293;49.524;10.964;2022-12-10T03:42:50;28.75;;;19.90;;
18334;SDS011;9293;49.524;10.964;2022-12-10T03:45:18;27.35;;;19.45;;
18334;SDS011;9293;49.524;10.964;2022-12-10T03:47:47;31.45;;;20.67;;
18334;SDS011;9293;49.524;10.964;2022-12-10T03:50:16;32.83;;;21.98;;
18334;SDS011;9293;49.524;10.964;2022-12-10T03:52:47;33.08;;;20.00;;
18334;SDS011;9293;49.524;10.964;2022-12-10T03:55:16;31.23;;;20.67;;
18334;SDS011;9293;49.524;10.964;2022-12-10T03:57:44;28.73;;;19.90;;
18334;SDS011;9293;49.524;10.964;2022-12-10T04:00:12;30.50;;;19.60;;
18334;SDS011;9293;49.524;10.964;2022-12-10T04:02:40;30.92;;;20.13;;
18334;SDS011;9293;49.524;10.964;2022-12-10T04:05:08;26.65;;;18.65;;
18334;SDS011;9293;49.524;10.964;2022-12-10T04:07:36;29.08;;;18.67;;
18334;SDS011;9293;49.524;10.964;2022-12-10T04:10:05;29.30;;;20.23;;
18334;SDS011;9293;49.524;10.964;2022-12-10T04:12:33;29.55;;;19.55;;
18334;SDS011;9293;49.524;10.964;2022-12-10T04:15:01;32.45;;;20.80;;
18334;SDS011;9293;49.524;10.964;2022-12-10T04:17:48;34.42;;;22.67;;
18334;SDS011;9293;49.524;10.964;2022-12-10T04:20:16;32.90;;;22.17;;
18334;SDS011;9293;49.524;10.964;2022-12-10T04:23:02;35.70;;;23.25;;
18334;SDS011;9293;49.524;10.964;2022-12-10T04:25:50;32.35;;;21.95;;
18334;SDS011;9293;49.524;10.964;2022-12-10T04:28:37;35.60;;;22.58;;
18334;SDS011;9293;49.524;10.964;2022-12-10T04:31:05;31.02;;;20.60;;
18334;SDS011;9293;49.524;10.964;2022-12-10T04:33:33;32.10;;;20.15;;
18334;SDS011;9293;49.524;10.964;2022-12-10T04:36:01;35.22;;;20.45;;
18334;SDS011;9293;49.524;10.964;2022-12-10T04:38:29;34.08;;;21.20;;
18334;SDS011;9293;49.524;10.964;2022-12-10T04:40:57;30.20;;;18.95;;
18334;SDS011;9293;49.524;10.964;2022-12-10T04:43:25;28.17;;;19.38;;
18334;SDS011;9293;49.524;10.964;2022-12-10T04:45:55;31.08;;;19.80;;
18334;SDS011;9293;49.524;10.964;2022-12-10T04:48:23;29.33;;;18.33;;
18334;SDS011;9293;49.524;10.964;2022-12-10T04:50:51;28.95;;;18.45;;
18334;SDS011;9293;49.524;10.964;2022-12-10T04:53:19;31.10;;;20.52;;
18334;SDS011;9293;49.524;10.964;2022-12-10T04:55:47;29.60;;;20.63;;
18334;SDS011;9293;49.524;10.964;2022-12-10T04:58:16;34.08;;;21.63;;
18334;SDS011;9293;49.524;10.964;2022-12-10T05:00:44;31.42;;;20.25;;
18334;SDS011;9293;49.524;10.964;2022-12-10T05:03:12;33.58;;;20.02;;
18334;SDS011;9293;49.524;10.964;2022-12-10T05:05:40;30.92;;;20.48;;
18334;SDS011;9293;49.524;10.964;2022-12-10T05:08:08;32.03;;;20.50;;
18334;SDS011;9293;49.524;10.964;2022-12-10T05:10:36;31.73;;;20.60;;
18334;SDS011;9293;49.524;10.964;2022-12-10T05:13:04;29.10;;;19.02;;
18334;SDS011;9293;49.524;10.964;2022-12-10T05:15:32;28.65;;;18.98;;
18334;SDS011;9293;49.524;10.964;2022-12-10T05:18:00;29.55;;;19.88;;
18334;SDS011;9293;49.524;10.964;2022-12-10T05:20:28;28.50;;;18.98;;
18334;SDS011;9293;49.524;10.964;2022-12-10T05:22:56;29.08;;;19.13;;
18334;SDS011;9293;49.524;10.964;2022-12-10T05:25:42;33.33;;;20.35;;
18334;SDS011;9293;49.524;10.964;2022-12-10T05:28:26;30.98;;;19.50;;
18334;SDS011;9293;49.524;10.964;2022-12-10T05:30:55;33.10;;;21.63;;
18334;SDS011;9293;49.524;10.964;2022-12-10T05:33:24;29.15;;;19.30;;
18334;SDS011;9293;49.524;10.964;2022-12-10T05:35:56;32.17;;;20.55;;
18334;SDS011;9293;49.524;10.964;2022-12-10T05:38:30;32.53;;;19.55;;
18334;SDS011;9293;49.524;10.964;2022-12-10T05:41:02;30.63;;;19.90;;
18334;SDS011;9293;49.524;10.964;2022-12-10T05:43:36;33.47;;;19.85;;
18334;SDS011;9293;49.524;10.964;2022-12-10T05:46:05;31.67;;;20.85;;
18334;SDS011;9293;49.524;10.964;2022-12-10T05:48:37;29.70;;;20.10;;
18334;SDS011;9293;49.524;10.964;2022-12-10T05:51:16;27.35;;;18.63;;
18334;SDS011;9293;49.524;10.964;2022-12-10T05:53:46;31.23;;;19.45;;
18334;SDS011;9293;49.524;10.964;2022-12-10T05:56:15;31.90;;;19.85;;
18334;SDS011;9293;49.524;10.964;2022-12-10T05:58:46;33.00;;;20.90;;
18334;SDS011;9293;49.524;10.964;2022-12-10T06:01:16;32.75;;;20.40;;
18334;SDS011;9293;49.524;10.964;2022-12-10T06:03:49;32.88;;;20.55;;
18334;SDS011;9293;49.524;10.964;2022-12-10T06:06:23;32.72;;;21.02;;
18334;SDS011;9293;49.524;10.964;2022-12-10T06:08:53;33.30;;;21.35;;
18334;SDS011;9293;49.524;10.964;2022-12-10T06:11:22;35.75;;;21.30;;
18334;SDS011;9293;49.524;10.964;2022-12-10T06:13:51;33.08;;;20.45;;
18334;SDS011;9293;49.524;10.964;2022-12-10T06:16:22;32.67;;;19.77;;
18334;SDS011;9293;49.524;10.964;2022-12-10T06:18:51;34.70;;;21.83;;
18334;SDS011;9293;49.524;10.964;2022-12-10T06:21:20;29.73;;;19.88;;
18334;SDS011;9293;49.524;10.964;2022-12-10T06:23:48;35.58;;;21.42;;
18334;SDS011;9293;49.524;10.964;2022-12-10T06:26:20;30.88;;;18.83;;
18334;SDS011;9293;49.524;10.964;2022-12-10T06:28:52;35.38;;;20.38;;
18334;SDS011;9293;49.524;10.964;2022-12-10T06:31:21;32.60;;;20.20;;
18334;SDS011;9293;49.524;10.964;2022-12-10T06:33:50;35.05;;;21.73;;
18334;SDS011;9293;49.524;10.964;2022-12-10T06:36:20;32.72;;;20.27;;
18334;SDS011;9293;49.524;10.964;2022-12-10T06:38:48;31.67;;;20.23;;
18334;SDS011;9293;49.524;10.964;2022-12-10T06:41:17;32.17;;;20.15;;
18334;SDS011;9293;49.524;10.964;2022-12-10T06:46:17;33.95;;;20.40;;
18334;SDS011;9293;49.524;10.964;2022-12-10T06:48:47;31.52;;;20.95;;
18334;SDS011;9293;49.524;10.964;2022-12-10T06:51:15;29.35;;;19.52;;
18334;SDS011;9293;49.524;10.964;2022-12-10T06:53:45;31.05;;;19.85;;
18334;SDS011;9293;49.524;10.964;2022-12-10T06:56:15;33.05;;;20.88;;
18334;SDS011;9293;49.524;10.964;2022-12-10T07:03:50;33.35;;;20.25;;
18334;SDS011;9293;49.524;10.964;2022-12-10T07:06:22;34.38;;;21.17;;
18334;SDS011;9293;49.524;10.964;2022-12-10T07:08:51;37.55;;;21.70;;
18334;SDS011;9293;49.524;10.964;2022-12-10T07:11:20;31.33;;;19.95;;
18334;SDS011;9293;49.524;10.964;2022-12-10T07:13:50;33.13;;;20.73;;
18334;SDS011;9293;49.524;10.964;2022-12-10T07:16:19;35.63;;;20.65;;
18334;SDS011;9293;49.524;10.964;2022-12-10T07:18:49;30.88;;;20.38;;
18334;SDS011;9293;49.524;10.964;2022-12-10T07:21:19;34.97;;;21.65;;
18334;SDS011;9293;49.524;10.964;2022-12-10T07:23:49;35.30;;;22.45;;
18334;SDS011;9293;49.524;10.964;2022-12-10T07:26:19;35.00;;;21.08;;
18334;SDS011;9293;49.524;10.964;2022-12-10T07:28:47;38.42;;;22.58;;
18334;SDS011;9293;49.524;10.964;2022-12-10T07:31:19;34.22;;;21.92;;
18334;SDS011;9293;49.524;10.964;2022-12-10T07:33:49;36.42;;;22.30;;
18334;SDS011;9293;49.524;10.964;2022-12-10T07:36:19;33.55;;;21.75;;
18334;SDS011;9293;49.524;10.964;2022-12-10T07:38:53;37.28;;;22.20;;
18334;SDS011;9293;49.524;10.964;2022-12-10T07:41:23;33.85;;;21.48;;
18334;SDS011;9293;49.524;10.964;2022-12-10T07:43:51;36.47;;;22.55;;
18334;SDS011;9293;49.524;10.964;2022-12-10T07:46:27;35.42;;;21.90;;
18334;SDS011;9293;49.524;10.964;2022-12-10T07:48:59;35.85;;;21.67;;
18334;SDS011;9293;49.524;10.964;2022-12-10T07:51:34;36.42;;;23.30;;
18334;SDS011;9293;49.524;10.964;2022-12-10T07:54:11;36.40;;;23.95;;
18334;SDS011;9293;49.524;10.964;2022-12-10T07:56:42;35.65;;;23.02;;
18334;SDS011;9293;49.524;10.964;2022-12-10T07:59:10;39.78;;;23.90;;
18334;SDS011;9293;49.524;10.964;2022-12-10T08:01:39;35.72;;;22.42;;
18334;SDS011;9293;49.524;10.964;2022-12-10T08:04:11;33.78;;;23.15;;
18334;SDS011;9293;49.524;10.964;2022-12-10T08:06:39;37.10;;;22.63;;
18334;SDS011;9293;49.524;10.964;2022-12-10T08:09:09;36.95;;;24.35;;
18334;SDS011;9293;49.524;10.964;2022-12-10T08:11:37;37.28;;;23.60;;
18334;SDS011;9293;49.524;10.964;2022-12-10T08:14:05;35.40;;;22.92;;
18334;SDS011;9293;49.524;10.964;2022-12-10T08:16:33;38.83;;;23.55;;
18334;SDS011;9293;49.524;10.964;2022-12-10T08:19:02;39.95;;;24.17;;
18334;SDS011;9293;49.524;10.964;2022-12-10T08:21:31;35.42;;;22.38;;
18334;SDS011;9293;49.524;10.964;2022-12-10T08:24:00;40.72;;;23.25;;
18334;SDS011;9293;49.524;10.964;2022-12-10T08:26:31;36.97;;;22.60;;
18334;SDS011;9293;49.524;10.964;2022-12-10T08:29:00;35.55;;;22.95;;
18334;SDS011;9293;49.524;10.964;2022-12-10T08:31:29;38.00;;;23.05;;
18334;SDS011;9293;49.524;10.964;2022-12-10T08:34:03;35.35;;;22.30;;
18334;SDS011;9293;49.524;10.964;2022-12-10T08:36:32;36.30;;;23.35;;
18334;SDS011;9293;49.524;10.964;2022-12-10T08:39:01;36.22;;;22.25;;
18334;SDS011;9293;49.524;10.964;2022-12-10T08:41:29;37.10;;;23.70;;
18334;SDS011;9293;49.524;10.964;2022-12-10T08:43:57;37.17;;;22.98;;
18334;SDS011;9293;49.524;10.964;2022-12-10T08:46:25;40.47;;;23.65;;
18334;SDS011;9293;49.524;10.964;2022-12-10T08:48:54;38.70;;;23.45;;
18334;SDS011;9293;49.524;10.964;2022-12-10T08:51:22;35.33;;;21.60;;
18334;SDS011;9293;49.524;10.964;2022-12-10T08:53:51;35.83;;;23.27;;
18334;SDS011;9293;49.524;10.964;2022-12-10T08:56:19;34.72;;;22.83;;
18334;SDS011;9293;49.524;10.964;2022-12-10T08:58:47;30.00;;;20.85;;
18334;SDS011;9293;49.524;10.964;2022-12-10T09:01:16;33.88;;;22.40;;
18334;SDS011;9293;49.524;10.964;2022-12-10T09:03:45;33.10;;;21.88;;
18334;SDS011;9293;49.524;10.964;2022-12-10T09:06:15;34.88;;;22.55;;
18334;SDS011;9293;49.524;10.964;2022-12-10T09:08:48;33.40;;;22.67;;
18334;SDS011;9293;49.524;10.964;2022-12-10T09:11:21;35.83;;;22.80;;
18334;SDS011;9293;49.524;10.964;2022-12-10T09:13:51;34.58;;;23.08;;
18334;SDS011;9293;49.524;10.964;2022-12-10T09:16:20;32.83;;;23.02;;
18334;SDS011;9293;49.524;10.964;2022-12-10T09:18:49;42.15;;;26.30;;
18334;SDS011;9293;49.524;10.964;2022-12-10T09:21:17;39.50;;;26.98;;
18334;SDS011;9293;49.524;10.964;2022-12-10T09:23:49;37.47;;;24.30;;
18334;SDS011;9293;49.524;10.964;2022-12-10T09:26:20;40.47;;;25.23;;
18334;SDS011;9293;49.524;10.964;2022-12-10T09:28:49;37.95;;;24.80;;
18334;SDS011;9293;49.524;10.964;2022-12-10T09:31:18;39.03;;;25.50;;
18334;SDS011;9293;49.524;10.964;2022-12-10T09:33:47;47.40;;;29.50;;
18334;SDS011;9293;49.524;10.964;2022-12-10T09:36:17;39.78;;;26.65;;
18334;SDS011;9293;49.524;10.964;2022-12-10T09:38:46;40.67;;;25.90;;
18334;SDS011;9293;49.524;10.964;2022-12-10T09:47:01;33.42;;;21.55;;
18334;SDS011;9293;49.524;10.964;2022-12-10T09:52:41;32.72;;;22.60;;
18334;SDS011;9293;49.524;10.964;2022-12-10T09:55:14;32.28;;;22.25;;
18334;SDS011;9293;49.524;10.964;2022-12-10T09:57:54;30.45;;;21.33;;
18334;SDS011;9293;49.524;10.964;2022-12-10T10:00:23;33.38;;;21.30;;
18334;SDS011;9293;49.524;10.964;2022-12-10T10:02:59;36.50;;;23.58;;
18334;SDS011;9293;49.524;10.964;2022-12-10T10:05:29;35.95;;;24.27;;
18334;SDS011;9293;49.524;10.964;2022-12-10T10:10:36;35.30;;;23.98;;
18334;SDS011;9293;49.524;10.964;2022-12-10T10:15:35;36.72;;;24.75;;
18334;SDS011;9293;49.524;10.964;2022-12-10T10:20:50;35.90;;;23.73;;
18334;SDS011;9293;49.524;10.964;2022-12-10T10:23:18;35.25;;;23.40;;
18334;SDS011;9293;49.524;10.964;2022-12-10T10:25:46;35.53;;;23.23;;
18334;SDS011;9293;49.524;10.964;2022-12-10T10:28:22;36.50;;;23.65;;
18334;SDS011;9293;49.524;10.964;2022-12-10T10:30:57;35.03;;;23.77;;
18334;SDS011;9293;49.524;10.964;2022-12-10T10:33:47;36.53;;;23.58;;
18334;SDS011;9293;49.524;10.964;2022-12-10T10:36:17;38.38;;;24.38;;
18334;SDS011;9293;49.524;10.964;2022-12-10T10:38:51;33.38;;;23.55;;
18334;SDS011;9293;49.524;10.964;2022-12-10T10:41:20;36.75;;;23.90;;
18334;SDS011;9293;49.524;10.964;2022-12-10T10:43:51;37.35;;;24.08;;
18334;SDS011;9293;49.524;10.964;2022-12-10T10:46:28;35.35;;;23.17;;
18334;SDS011;9293;49.524;10.964;2022-12-10T10:49:11;35.42;;;23.55;;
18334;SDS011;9293;49.524;10.964;2022-12-10T10:51:45;35.60;;;24.33;;
18334;SDS011;9293;49.524;10.964;2022-12-10T10:54:32;37.30;;;24.80;;
18334;SDS011;9293;49.524;10.964;2022-12-10T10:57:06;34.25;;;24.50;;
18334;SDS011;9293;49.524;10.964;2022-12-10T10:59:38;44.92;;;28.80;;
18334;SDS011;9293;49.524;10.964;2022-12-10T11:05:04;40.60;;;26.77;;
18334;SDS011;9293;49.524;10.964;2022-12-10T11:07:39;44.33;;;30.00;;
18334;SDS011;9293;49.524;10.964;2022-12-10T11:10:21;41.75;;;27.45;;
18334;SDS011;9293;49.524;10.964;2022-12-10T11:13:14;41.67;;;28.00;;
18334;SDS011;9293;49.524;10.964;2022-12-10T11:18:35;36.83;;;24.13;;
18334;SDS011;9293;49.524;10.964;2022-12-10T11:23:41;38.20;;;23.38;;
18334;SDS011;9293;49.524;10.964;2022-12-10T11:26:30;41.28;;;25.38;;
18334;SDS011;9293;49.524;10.964;2022-12-10T11:29:46;34.13;;;22.98;;
18334;SDS011;9293;49.524;10.964;2022-12-10T11:35:58;35.58;;;24.13;;
18334;SDS011;9293;49.524;10.964;2022-12-10T11:38:54;38.53;;;24.80;;
18334;SDS011;9293;49.524;10.964;2022-12-10T11:41:41;39.50;;;25.08;;
18334;SDS011;9293;49.524;10.964;2022-12-10T11:55:46;37.97;;;24.77;;
18334;SDS011;9293;49.524;10.964;2022-12-10T12:01:33;38.38;;;25.40;;
18334;SDS011;9293;49.524;10.964;2022-12-10T12:12:40;34.75;;;24.60;;
18334;SDS011;9293;49.524;10.964;2022-12-10T12:15:15;36.83;;;25.52;;
18334;SDS011;9293;49.524;10.964;2022-12-10T12:17:50;36.15;;;24.95;;
18334;SDS011;9293;49.524;10.964;2022-12-10T12:20:25;36.20;;;23.35;;
18334;SDS011;9293;49.524;10.964;2022-12-10T12:26:15;34.53;;;23.13;;
18334;SDS011;9293;49.524;10.964;2022-12-10T12:28:50;37.50;;;23.70;;
18334;SDS011;9293;49.524;10.964;2022-12-10T12:31:38;36.70;;;24.20;;
18334;SDS011;9293;49.524;10.964;2022-12-10T12:34:18;34.92;;;23.40;;
18334;SDS011;9293;49.524;10.964;2022-12-10T12:36:51;33.40;;;22.60;;
18334;SDS011;9293;49.524;10.964;2022-12-10T12:44:44;40.13;;;25.50;;
18334;SDS011;9293;49.524;10.964;2022-12-10T12:49:56;36.42;;;24.75;;
18334;SDS011;9293;49.524;10.964;2022-12-10T12:52:40;33.97;;;23.52;;
18334;SDS011;9293;49.524;10.964;2022-12-10T12:55:21;34.63;;;23.13;;
18334;SDS011;9293;49.524;10.964;2022-12-10T12:58:02;36.53;;;24.48;;
18334;SDS011;9293;49.524;10.964;2022-12-10T13:00:41;35.33;;;24.13;;
18334;SDS011;9293;49.524;10.964;2022-12-10T13:03:32;34.28;;;24.08;;
18334;SDS011;9293;49.524;10.964;2022-12-10T13:11:29;35.50;;;24.52;;
18334;SDS011;9293;49.524;10.964;2022-12-10T13:19:23;34.97;;;23.95;;
18334;SDS011;9293;49.524;10.964;2022-12-10T13:29:57;35.72;;;23.92;;
18334;SDS011;9293;49.524;10.964;2022-12-10T13:42:58;36.22;;;23.65;;
18334;SDS011;9293;49.524;10.964;2022-12-10T13:48:49;38.13;;;24.55;;
18334;SDS011;9293;49.524;10.964;2022-12-10T13:51:31;38.60;;;24.85;;
18334;SDS011;9293;49.524;10.964;2022-12-10T14:00:47;33.35;;;23.08;;
18334;SDS011;9293;49.524;10.964;2022-12-10T14:06:10;36.67;;;24.73;;
18334;SDS011;9293;49.524;10.964;2022-12-10T14:09:29;35.33;;;23.55;;
18334;SDS011;9293;49.524;10.964;2022-12-10T14:11:47;34.05;;;23.45;;
18334;SDS011;9293;49.524;10.964;2022-12-10T14:14:30;36.33;;;23.67;;
18334;SDS011;9293;49.524;10.964;2022-12-10T14:17:02;35.05;;;23.65;;
18334;SDS011;9293;49.524;10.964;2022-12-10T14:19:33;34.15;;;22.63;;
18334;SDS011;9293;49.524;10.964;2022-12-10T14:22:05;34.13;;;23.52;;
18334;SDS011;9293;49.524;10.964;2022-12-10T14:24:36;34.90;;;23.60;;
18334;SDS011;9293;49.524;10.964;2022-12-10T14:27:11;46.42;;;27.00;;
18334;SDS011;9293;49.524;10.964;2022-12-10T14:29:52;39.58;;;24.45;;
18334;SDS011;9293;49.524;10.964;2022-12-10T14:32:27;40.92;;;24.67;;
18334;SDS011;9293;49.524;10.964;2022-12-10T14:35:00;36.72;;;23.52;;
18334;SDS011;9293;49.524;10.964;2022-12-10T14:37:29;35.53;;;24.08;;
18334;SDS011;9293;49.524;10.964;2022-12-10T14:40:00;58.40;;;32.75;;
18334;SDS011;9293;49.524;10.964;2022-12-10T14:42:31;37.45;;;25.65;;
18334;SDS011;9293;49.524;10.964;2022-12-10T14:45:00;56.03;;;30.70;;
18334;SDS011;9293;49.524;10.964;2022-12-10T14:47:32;49.45;;;30.23;;
18334;SDS011;9293;49.524;10.964;2022-12-10T14:52:43;34.70;;;22.77;;
18334;SDS011;9293;49.524;10.964;2022-12-10T14:55:17;35.08;;;22.20;;
18334;SDS011;9293;49.524;10.964;2022-12-10T14:57:51;30.33;;;20.10;;
18334;SDS011;9293;49.524;10.964;2022-12-10T15:00:29;29.23;;;18.73;;
18334;SDS011;9293;49.524;10.964;2022-12-10T15:02:59;33.65;;;21.25;;
18334;SDS011;9293;49.524;10.964;2022-12-10T15:05:34;36.25;;;21.35;;
18334;SDS011;9293;49.524;10.964;2022-12-10T15:08:04;28.02;;;17.55;;
18334;SDS011;9293;49.524;10.964;2022-12-10T15:10:44;29.30;;;18.90;;
18334;SDS011;9293;49.524;10.964;2022-12-10T15:13:24;41.88;;;24.00;;
18334;SDS011;9293;49.524;10.964;2022-12-10T15:15:54;38.95;;;21.13;;
18334;SDS011;9293;49.524;10.964;2022-12-10T15:18:38;35.03;;;19.23;;
18334;SDS011;9293;49.524;10.964;2022-12-10T15:21:16;24.48;;;15.90;;
18334;SDS011;9293;49.524;10.964;2022-12-10T15:23:49;20.85;;;14.80;;
18334;SDS011;9293;49.524;10.964;2022-12-10T15:26:34;22.85;;;16.05;;
18334;SDS011;9293;49.524;10.964;2022-12-10T15:32:04;23.53;;;15.37;;
18334;SDS011;9293;49.524;10.964;2022-12-10T15:34:52;27.80;;;16.42;;
18334;SDS011;9293;49.524;10.964;2022-12-10T15:37:31;28.25;;;16.73;;
18334;SDS011;9293;49.524;10.964;2022-12-10T15:40:21;22.38;;;14.75;;
18334;SDS011;9293;49.524;10.964;2022-12-10T15:43:10;22.08;;;13.90;;
18334;SDS011;9293;49.524;10.964;2022-12-10T15:45:44;25.10;;;14.27;;
18334;SDS011;9293;49.524;10.964;2022-12-10T15:48:17;20.63;;;13.77;;
18334;SDS011;9293;49.524;10.964;2022-12-10T15:50:45;19.40;;;13.20;;
18334;SDS011;9293;49.524;10.964;2022-12-10T15:53:14;21.00;;;13.32;;
18334;SDS011;9293;49.524;10.964;2022-12-10T15:55:49;19.75;;;12.75;;
18334;SDS011;9293;49.524;10.964;2022-12-10T15:58:17;20.30;;;13.55;;
18334;SDS011;9293;49.524;10.964;2022-12-10T16:00:45;18.98;;;13.02;;
18334;SDS011;9293;49.524;10.964;2022-12-10T16:03:14;20.52;;;13.68;;
18334;SDS011;9293;49.524;10.964;2022-12-10T16:05:43;20.75;;;12.85;;
18334;SDS011;9293;49.524;10.964;2022-12-10T16:10:48;20.27;;;12.73;;
18334;SDS011;9293;49.524;10.964;2022-12-10T16:13:19;23.67;;;15.73;;
18334;SDS011;9293;49.524;10.964;2022-12-10T16:15:50;25.08;;;18.70;;
18334;SDS011;9293;49.524;10.964;2022-12-10T16:18:21;20.48;;;14.20;;
18334;SDS011;9293;49.524;10.964;2022-12-10T16:20:53;18.52;;;12.98;;
18334;SDS011;9293;49.524;10.964;2022-12-10T16:23:21;24.45;;;16.17;;
18334;SDS011;9293;49.524;10.964;2022-12-10T16:25:49;21.73;;;14.90;;
18334;SDS011;9293;49.524;10.964;2022-12-10T16:28:19;24.48;;;15.88;;
18334;SDS011;9293;49.524;10.964;2022-12-10T16:30:50;22.02;;;14.10;;
18334;SDS011;9293;49.524;10.964;2022-12-10T16:33:20;19.88;;;13.32;;
18334;SDS011;9293;49.524;10.964;2022-12-10T16:35:50;20.48;;;13.48;;
18334;SDS011;9293;49.524;10.964;2022-12-10T16:38:19;21.55;;;14.10;;
18334;SDS011;9293;49.524;10.964;2022-12-10T16:40:50;19.83;;;13.85;;
18334;SDS011;9293;49.524;10.964;2022-12-10T16:43:22;19.05;;;13.20;;
18334;SDS011;9293;49.524;10.964;2022-12-10T16:45:52;22.83;;;13.23;;
18334;SDS011;9293;49.524;10.964;2022-12-10T16:48:21;21.88;;;13.82;;
18334;SDS011;9293;49.524;10.964;2022-12-10T16:50:50;21.83;;;13.65;;
18334;SDS011;9293;49.524;10.964;2022-12-10T16:53:26;22.15;;;13.32;;
18334;SDS011;9293;49.524;10.964;2022-12-10T16:55:56;20.27;;;12.70;;
18334;SDS011;9293;49.524;10.964;2022-12-10T16:58:24;18.10;;;12.90;;
18334;SDS011;9293;49.524;10.964;2022-12-10T17:00:53;20.17;;;13.63;;
18334;SDS011;9293;49.524;10.964;2022-12-10T17:03:23;17.35;;;12.63;;
18334;SDS011;9293;49.524;10.964;2022-12-10T17:05:56;18.90;;;12.38;;
18334;SDS011;9293;49.524;10.964;2022-12-10T17:08:26;22.33;;;14.17;;
18334;SDS011;9293;49.524;10.964;2022-12-10T17:10:56;17.48;;;12.85;;
18334;SDS011;9293;49.524;10.964;2022-12-10T17:13:43;22.58;;;15.15;;